Time;durP1;ratioP1;P1;durP2;ratioP2;P2;SDS_P1;SDS_P2;PMS_P1;PMS_P2;Temp;Humidity;BMP_temperature;BMP_pressure;BME280_temperature;BME280_humidity;BME280_pressure;Samples;Min_cycle;Max_cycle;Signal;HPM_P1;HPM_P2
2022/10/05 00:01:27;;;;;;;7.17;4.20;;;13.30;99.90;;;;;;5034582;28;20443;-52
2022/10/05 00:04:01;;;;;;;5.90;4.60;;;13.00;99.90;;;;;;5034426;28;20482;-52
2022/10/05 00:06:29;;;;;;;7.23;5.13;;;12.80;99.90;;;;;;5034341;28;20410;-51
2022/10/05 00:08:56;;;;;;;7.27;5.00;;;13.60;99.90;;;;;;5034515;28;20493;-52
2022/10/05 00:11:22;;;;;;;7.03;3.90;;;13.00;99.90;;;;;;5034289;28;20481;-52
2022/10/05 00:13:49;;;;;;;5.10;3.90;;;13.20;99.90;;;;;;5034093;28;20438;-50
2022/10/05 00:16:18;;;;;;;9.00;4.33;;;13.50;99.90;;;;;;5034281;28;20433;-52
2022/10/05 00:18:48;;;;;;;10.20;4.40;;;13.30;99.90;;;;;;5033884;28;20467;-52
2022/10/05 00:21:21;;;;;;;4.33;3.77;;;13.40;99.90;;;;;;5034712;28;20441;-52
2022/10/05 00:23:48;;;;;;;6.13;4.03;;;12.90;99.90;;;;;;5034122;28;20986;-52
2022/10/05 00:26:19;;;;;;;9.03;4.60;;;12.60;99.90;;;;;;5034185;28;20460;-52
2022/10/05 00:28:46;;;;;;;7.40;4.53;;;13.00;99.90;;;;;;5033553;28;20458;-52
2022/10/05 00:31:17;;;;;;;9.17;5.33;;;13.00;99.90;;;;;;5034243;28;20442;-52
2022/10/05 00:33:44;;;;;;;7.23;5.00;;;12.70;99.90;;;;;;5016550;28;20485;-51
2022/10/05 00:36:10;;;;;;;4.73;4.07;;;13.40;99.90;;;;;;5033703;28;20451;-52
2022/10/05 00:38:38;;;;;;;10.13;4.97;;;13.20;99.90;;;;;;5015587;28;20448;-52
2022/10/05 00:41:09;;;;;;;5.87;4.33;;;12.40;99.90;;;;;;5016040;28;20845;-52
2022/10/05 00:43:52;;;;;;;5.17;4.10;;;13.20;99.90;;;;;;5015937;28;20466;-52
2022/10/05 00:46:23;;;;;;;5.93;4.53;;;12.90;99.90;;;;;;5033755;28;20439;-52
2022/10/05 00:49:03;;;;;;;7.10;4.23;;;12.80;99.90;;;;;;5033104;28;20453;-51
2022/10/05 00:51:31;;;;;;;5.27;4.20;;;13.30;99.90;;;;;;5015741;28;20447;-52
2022/10/05 00:54:18;;;;;;;7.90;4.80;;;13.10;99.90;;;;;;5033493;28;20434;-51
2022/10/05 00:57:02;;;;;;;5.87;4.20;;;12.70;99.90;;;;;;5015716;28;20501;-51
2022/10/05 00:59:41;;;;;;;5.83;4.40;;;13.40;99.90;;;;;;5032933;28;20954;-51
2022/10/05 01:02:12;;;;;;;5.67;4.40;;;13.20;99.90;;;;;;5015159;28;20537;-52
2022/10/05 01:04:48;;;;;;;5.67;4.17;;;12.80;99.90;;;;;;5033216;28;20479;-51
2022/10/05 01:07:24;;;;;;;4.33;3.70;;;13.40;99.90;;;;;;5015552;28;20444;-51
2022/10/05 01:09:59;;;;;;;6.23;4.47;;;13.40;99.90;;;;;;5032980;28;20429;-51
2022/10/05 01:12:31;;;;;;;8.40;4.50;;;12.60;99.90;;;;;;5015312;28;20447;-51
2022/10/05 01:15:05;;;;;;;8.43;4.77;;;13.10;99.90;;;;;;5033100;28;20434;-52
2022/10/05 01:17:36;;;;;;;6.97;4.77;;;12.80;99.90;;;;;;5015341;28;20550;-51
2022/10/05 01:20:19;;;;;;;5.43;4.10;;;12.80;99.90;;;;;;5032397;28;20464;-51
2022/10/05 01:23:07;;;;;;;4.97;4.30;;;12.60;99.90;;;;;;5033023;28;20443;-51
2022/10/05 01:25:46;;;;;;;6.43;3.90;;;12.80;99.90;;;;;;5032862;28;20978;-52
2022/10/05 01:28:18;;;;;;;6.83;4.57;;;13.00;99.90;;;;;;5015128;28;20989;-52
2022/10/05 01:30:50;;;;;;;6.93;4.30;;;12.90;99.90;;;;;;5032439;28;20477;-53
2022/10/05 01:33:24;;;;;;;5.00;3.40;;;12.70;99.90;;;;;;5032707;28;20442;-52
2022/10/05 01:35:59;;;;;;;6.83;3.80;;;12.60;99.90;;;;;;5015216;28;20423;-52
2022/10/05 01:38:40;;;;;;;5.20;4.23;;;12.70;99.90;;;;;;5014737;28;20443;-51
2022/10/05 01:41:18;;;;;;;6.67;4.77;;;12.80;99.90;;;;;;5014906;28;20454;-52
2022/10/05 01:43:49;;;;;;;8.03;4.13;;;12.70;99.90;;;;;;5032659;28;20466;-52
2022/10/05 01:46:27;;;;;;;5.10;4.10;;;12.70;99.90;;;;;;5032795;28;20408;-51
2022/10/05 01:49:12;;;;;;;5.20;3.80;;;12.60;99.90;;;;;;5014359;28;20848;-52
2022/10/05 01:51:47;;;;;;;7.57;4.87;;;12.60;99.90;;;;;;5032528;28;20921;-52
2022/10/05 01:54:22;;;;;;;10.13;4.80;;;12.90;99.90;;;;;;5032809;28;20433;-52
2022/10/05 01:56:59;;;;;;;8.57;4.50;;;12.40;99.90;;;;;;5032463;28;20436;-52
2022/10/05 01:59:36;;;;;;;5.03;3.83;;;12.60;99.90;;;;;;5014170;28;21065;-53
2022/10/05 02:02:06;;;;;;;7.30;4.87;;;12.40;99.90;;;;;;5014511;28;21055;-52
2022/10/05 02:04:39;;;;;;;4.97;4.27;;;12.70;99.90;;;;;;5014661;28;20846;-52
2022/10/05 02:07:13;;;;;;;7.47;4.97;;;12.70;99.90;;;;;;5014674;28;20463;-52
2022/10/05 02:09:46;;;;;;;8.87;4.57;;;12.70;99.90;;;;;;5014039;28;20474;-52
2022/10/05 02:12:17;;;;;;;7.47;4.60;;;12.50;99.90;;;;;;5014109;28;20456;-52
2022/10/05 02:14:49;;;;;;;6.80;4.70;;;12.50;99.90;;;;;;5031919;28;20438;-52
2022/10/05 02:17:19;;;;;;;5.17;4.40;;;12.70;99.90;;;;;;5032054;28;20434;-52
2022/10/05 02:19:48;;;;;;;4.80;4.40;;;12.30;99.90;;;;;;5014090;28;20840;-52
2022/10/05 02:22:21;;;;;;;6.70;4.73;;;12.40;99.90;;;;;;5032110;28;20523;-52
2022/10/05 02:24:54;;;;;;;7.30;4.30;;;12.40;99.90;;;;;;5014407;28;21083;-53
2022/10/05 02:27:25;;;;;;;10.40;4.47;;;12.20;99.90;;;;;;5014410;28;20480;-52
2022/10/05 02:29:59;;;;;;;7.27;4.40;;;12.60;99.90;;;;;;5013707;28;20478;-51
2022/10/05 02:32:33;;;;;;;5.50;4.30;;;12.10;99.90;;;;;;5014294;28;20465;-52
2022/10/05 02:35:06;;;;;;;6.20;4.37;;;12.40;99.90;;;;;;5014176;28;20682;-53
2022/10/05 02:37:43;;;;;;;7.00;4.40;;;12.20;99.90;;;;;;5014098;28;20966;-52
2022/10/05 02:40:24;;;;;;;6.30;4.30;;;12.20;99.90;;;;;;5013705;28;20484;-52
2022/10/05 02:43:00;;;;;;;6.10;4.50;;;12.40;99.90;;;;;;5014130;28;20476;-50
2022/10/05 02:45:39;;;;;;;8.50;4.30;;;11.90;99.90;;;;;;5013969;28;20469;-52
2022/10/05 02:48:13;;;;;;;7.60;5.03;;;12.40;99.90;;;;;;5014143;28;20454;-52
2022/10/05 02:50:49;;;;;;;6.97;4.90;;;12.60;99.90;;;;;;5031404;28;20546;-53
2022/10/05 02:53:25;;;;;;;8.40;5.10;;;12.30;99.90;;;;;;5014004;28;20440;-53
2022/10/05 02:56:06;;;;;;;4.83;3.73;;;12.20;99.90;;;;;;5014266;28;20454;-52
2022/10/05 02:58:40;;;;;;;7.70;4.70;;;12.50;99.90;;;;;;5031276;28;20437;-52
2022/10/05 03:01:15;;;;;;;6.50;4.83;;;12.40;99.90;;;;;;5013891;28;20498;-52
2022/10/05 03:03:46;;;;;;;7.60;4.57;;;12.30;99.90;;;;;;5013974;28;20454;-53
2022/10/05 03:06:19;;;;;;;9.20;4.17;;;12.30;99.90;;;;;;5013954;28;20509;-53
2022/10/05 03:08:57;;;;;;;7.00;4.33;;;12.20;99.90;;;;;;5013600;28;20478;-51
2022/10/05 03:11:31;;;;;;;8.43;4.80;;;12.50;99.90;;;;;;5031807;28;20428;-52
2022/10/05 03:14:05;;;;;;;8.23;4.90;;;12.30;99.90;;;;;;5015391;28;20956;-52
2022/10/05 03:16:50;;;;;;;5.50;4.37;;;12.10;99.90;;;;;;5013773;28;20503;-52
2022/10/05 03:19:29;;;;;;;7.03;4.50;;;12.90;99.90;;;;;;5013533;28;20473;-51
2022/10/05 03:22:01;;;;;;;6.93;5.07;;;12.60;99.90;;;;;;5013817;28;20456;-50
2022/10/05 03:24:43;;;;;;;6.40;4.60;;;12.30;99.90;;;;;;5015223;28;20496;-52
2022/10/05 03:27:22;;;;;;;7.77;4.97;;;12.50;99.90;;;;;;5017314;28;20444;-52
2022/10/05 03:29:57;;;;;;;7.30;4.80;;;12.30;99.90;;;;;;5017507;28;20482;-52
2022/10/05 03:32:36;;;;;;;7.27;4.53;;;12.30;99.90;;;;;;5017614;28;20448;-52
2022/10/05 03:35:09;;;;;;;10.37;5.63;;;12.90;99.90;;;;;;5035288;28;20428;-52
2022/10/05 03:37:47;;;;;;;6.10;4.80;;;12.30;99.90;;;;;;5017425;28;20449;-52
2022/10/05 03:40:25;;;;;;;10.37;7.00;;;12.80;99.90;;;;;;5016736;28;20472;-50
2022/10/05 03:43:04;;;;;;;6.50;4.53;;;12.60;99.90;;;;;;5016982;28;20441;-53
2022/10/05 03:45:38;;;;;;;8.67;5.13;;;12.50;99.90;;;;;;5016948;28;20478;-53
2022/10/05 03:48:11;;;;;;;9.90;5.00;;;12.80;99.90;;;;;;5016784;28;20526;-52
2022/10/05 03:50:45;;;;;;;7.27;4.93;;;13.10;99.90;;;;;;5016537;28;20481;-53
2022/10/05 03:53:18;;;;;;;7.60;4.80;;;12.70;99.90;;;;;;5017140;28;20908;-52
2022/10/05 03:55:50;;;;;;;9.67;5.17;;;12.50;99.90;;;;;;5016766;28;20466;-52
2022/10/05 03:58:22;;;;;;;7.57;4.73;;;12.70;99.90;;;;;;5016791;28;20831;-53
2022/10/05 04:00:54;;;;;;;7.83;4.60;;;12.60;99.90;;;;;;5016380;28;20490;-52
2022/10/05 04:03:30;;;;;;;6.50;5.00;;;12.90;99.90;;;;;;5016713;28;20440;-52
2022/10/05 04:06:02;;;;;;;6.77;4.87;;;12.10;99.90;;;;;;5016562;28;20977;-52
2022/10/05 04:08:35;;;;;;;7.77;4.83;;;12.90;99.90;;;;;;5016442;28;20457;-52
2022/10/05 04:11:08;;;;;;;12.80;5.80;;;12.70;99.90;;;;;;5016473;28;20487;-53
2022/10/05 04:13:40;;;;;;;8.23;4.60;;;12.50;99.90;;;;;;5016322;28;20448;-52
2022/10/05 04:16:11;;;;;;;18.03;5.03;;;12.50;99.90;;;;;;5016476;28;20458;-53
2022/10/05 04:18:44;;;;;;;7.73;4.80;;;12.70;99.90;;;;;;5015893;28;20451;-53
2022/10/05 04:21:17;;;;;;;8.80;5.27;;;12.50;99.90;;;;;;5016234;28;20448;-51
2022/10/05 04:23:50;;;;;;;7.50;5.07;;;11.90;99.90;;;;;;5016070;28;20441;-52
2022/10/05 04:26:24;;;;;;;11.63;5.33;;;12.50;99.90;;;;;;5033847;28;20493;-52
2022/10/05 04:28:56;;;;;;;8.67;4.80;;;12.50;99.90;;;;;;5016267;28;20563;-52
2022/10/05 04:31:36;;;;;;;7.73;4.83;;;12.50;99.90;;;;;;5017903;28;20509;-53
2022/10/05 04:34:15;;;;;;;9.10;4.80;;;12.60;99.90;;;;;;5016231;28;20437;-52
2022/10/05 04:36:48;;;;;;;7.83;5.30;;;12.60;99.90;;;;;;5033237;28;20461;-54
2022/10/05 04:39:27;;;;;;;8.70;5.20;;;12.30;99.90;;;;;;5033359;28;20512;-53
2022/10/05 04:42:06;;;;;;;6.63;4.53;;;12.50;99.90;;;;;;5016109;28;20460;-53
2022/10/05 04:45:01;;;;;;;7.70;5.40;;;12.60;99.90;;;;;;5033492;28;20438;-53
2022/10/05 04:47:48;;;;;;;8.17;5.13;;;12.50;99.90;;;;;;5033382;28;20426;-53
2022/10/05 04:50:27;;;;;;;7.13;5.20;;;12.20;99.90;;;;;;5015208;28;20469;-51
2022/10/05 04:53:18;;;;;;;9.10;5.60;;;12.70;99.90;;;;;;5015428;28;20467;-53
2022/10/05 04:55:52;;;;;;;7.80;5.37;;;12.40;99.90;;;;;;5015599;28;20453;-52
2022/10/05 04:58:31;;;;;;;10.63;5.53;;;12.50;99.90;;;;;;5015440;28;20453;-54
2022/10/05 05:01:13;;;;;;;7.17;4.40;;;12.40;99.90;;;;;;5015523;28;20511;-53
2022/10/05 05:04:10;;;;;;;13.40;5.10;;;12.80;99.90;;;;;;5015640;28;20485;-51
2022/10/05 05:06:46;;;;;;;8.20;4.50;;;12.20;99.90;;;;;;5015241;28;20538;-52
2022/10/05 05:09:42;;;;;;;9.57;5.20;;;12.30;99.90;;;;;;5032577;28;20459;-53
2022/10/05 05:12:20;;;;;;;5.17;4.63;;;12.10;99.90;;;;;;5015358;28;20463;-52
2022/10/05 05:15:17;;;;;;;12.97;6.50;;;12.50;99.90;;;;;;5015077;28;20506;-52
2022/10/05 05:17:59;;;;;;;8.63;5.17;;;12.60;99.90;;;;;;5015101;28;20467;-52
2022/10/05 05:20:38;;;;;;;6.23;5.10;;;12.40;99.90;;;;;;5014753;28;20513;-53
2022/10/05 05:23:17;;;;;;;7.40;4.83;;;12.90;99.90;;;;;;5014769;28;20554;-52
2022/10/05 05:25:53;;;;;;;9.23;5.10;;;12.40;99.90;;;;;;5014898;28;20463;-53
2022/10/05 05:28:29;;;;;;;7.60;5.17;;;12.20;99.90;;;;;;5014569;28;20797;-51
2022/10/05 05:31:05;;;;;;;11.07;5.70;;;12.20;99.90;;;;;;5014357;28;20479;-53
2022/10/05 05:33:41;;;;;;;7.03;5.40;;;12.40;99.90;;;;;;5032251;28;20456;-52
2022/10/05 05:36:39;;;;;;;11.03;6.87;;;12.50;99.90;;;;;;5014062;28;20948;-53
2022/10/05 05:39:22;;;;;;;9.83;6.37;;;12.60;99.90;;;;;;5030655;28;20923;-52
2022/10/05 05:42:01;;;;;;;6.53;5.73;;;12.50;99.90;;;;;;5014572;28;20576;-52
2022/10/05 05:44:34;;;;;;;13.97;5.10;;;12.50;99.90;;;;;;5014576;28;20557;-52
2022/10/05 05:47:04;;;;;;;9.60;5.10;;;12.70;99.90;;;;;;5013720;28;20485;-52
2022/10/05 05:49:53;;;;;;;10.10;7.17;;;12.10;99.90;;;;;;5013077;28;20513;-53
2022/10/05 05:52:27;;;;;;;9.30;5.90;;;12.50;99.90;;;;;;5013386;28;20458;-54
2022/10/05 05:55:01;;;;;;;6.90;5.07;;;12.60;99.90;;;;;;5014470;28;20510;-53
2022/10/05 05:57:33;;;;;;;6.63;5.00;;;13.10;99.90;;;;;;5014014;28;20491;-53
2022/10/05 06:00:05;;;;;;;10.87;6.27;;;13.10;99.90;;;;;;5013251;28;20520;-52
2022/10/05 06:02:44;;;;;;;9.03;5.27;;;12.70;99.90;;;;;;5032072;28;20418;-52
2022/10/05 06:05:29;;;;;;;12.53;6.13;;;12.60;99.90;;;;;;5014206;28;20462;-54
2022/10/05 06:08:01;;;;;;;8.47;5.17;;;12.60;99.90;;;;;;5014540;28;20449;-53
2022/10/05 06:10:35;;;;;;;9.40;5.40;;;12.90;99.90;;;;;;5013545;28;20479;-53
2022/10/05 06:13:14;;;;;;;12.17;5.90;;;12.50;99.90;;;;;;5013896;28;20465;-52
2022/10/05 06:15:44;;;;;;;10.27;4.70;;;12.80;99.90;;;;;;5014088;28;20449;-53
2022/10/05 06:18:15;;;;;;;11.63;5.40;;;12.40;99.90;;;;;;5013585;28;20458;-51
2022/10/05 06:20:48;;;;;;;6.47;5.80;;;12.90;99.90;;;;;;5013154;28;20469;-52
2022/10/05 06:23:20;;;;;;;8.80;5.33;;;12.80;99.90;;;;;;5013832;28;20457;-53
2022/10/05 06:26:12;;;;;;;11.40;6.20;;;12.90;99.90;;;;;;5013762;28;20473;-53
2022/10/05 06:28:41;;;;;;;8.27;7.10;;;12.80;99.90;;;;;;5013359;28;20479;-53
2022/10/05 06:31:23;;;;;;;9.83;5.73;;;13.10;99.90;;;;;;5013608;28;20453;-53
2022/10/05 06:33:58;;;;;;;16.27;6.03;;;12.50;99.90;;;;;;5013251;28;20536;-53
2022/10/05 06:36:40;;;;;;;7.93;5.10;;;12.40;99.90;;;;;;5013525;28;20545;-53
2022/10/05 06:39:31;;;;;;;12.50;5.50;;;12.90;99.90;;;;;;5012641;28;20514;-52
2022/10/05 06:42:21;;;;;;;15.50;7.73;;;13.10;99.90;;;;;;5012653;28;20489;-54
2022/10/05 06:45:22;;;;;;;10.27;6.80;;;13.30;99.90;;;;;;5012989;28;20461;-52
2022/10/05 06:48:10;;;;;;;9.80;6.70;;;13.40;99.90;;;;;;5013090;28;20541;-52
2022/10/05 06:51:03;;;;;;;14.73;7.20;;;13.20;99.90;;;;;;5013572;28;20459;-53
2022/10/05 06:54:02;;;;;;;8.77;5.03;;;13.20;99.90;;;;;;5022704;28;20447;-52
2022/10/05 06:56:37;;;;;;;6.57;5.33;;;13.70;99.90;;;;;;5013170;28;20865;-52
2022/10/05 06:59:10;;;;;;;9.37;5.80;;;13.40;99.90;;;;;;5013615;28;20557;-53
2022/10/05 07:01:50;;;;;;;12.93;5.87;;;13.60;99.90;;;;;;5017050;28;21046;-53
2022/10/05 07:04:34;;;;;;;14.07;7.83;;;13.00;99.90;;;;;;5017246;28;20479;-52
2022/10/05 07:07:07;;;;;;;8.70;5.63;;;13.40;99.90;;;;;;5035188;28;20478;-52
2022/10/05 07:09:43;;;;;;;7.07;5.10;;;13.50;99.90;;;;;;5016250;28;20471;-53
2022/10/05 07:12:33;;;;;;;14.00;6.67;;;13.20;99.90;;;;;;5016601;28;20450;-52
2022/10/05 07:15:15;;;;;;;7.00;4.90;;;13.50;99.90;;;;;;5016829;28;20446;-52
2022/10/05 07:17:52;;;;;;;9.87;5.40;;;14.00;99.90;;;;;;5016681;28;20457;-53
2022/10/05 07:20:28;;;;;;;7.10;4.90;;;13.90;99.90;;;;;;5015964;28;20928;-52
2022/10/05 07:23:10;;;;;;;6.17;5.03;;;13.60;99.90;;;;;;5015928;28;20450;-51
2022/10/05 07:25:45;;;;;;;7.20;4.80;;;13.80;99.90;;;;;;5016888;28;20481;-52
2022/10/05 07:28:17;;;;;;;6.80;5.07;;;13.80;99.90;;;;;;5016842;28;20548;-52
2022/10/05 07:30:54;;;;;;;8.30;4.93;;;13.60;99.90;;;;;;5033502;28;20536;-53
2022/10/05 07:33:26;;;;;;;8.97;6.50;;;13.90;99.90;;;;;;5016707;28;20533;-52
2022/10/05 07:38:52;;;;;;;9.13;5.60;;;13.80;99.90;;;;;;5016109;28;20461;-53
2022/10/05 07:41:25;;;;;;;9.53;5.20;;;14.00;99.90;;;;;;5034316;28;20446;-53
2022/10/05 07:43:58;;;;;;;6.57;4.10;;;14.10;99.90;;;;;;5016500;28;20944;-53
2022/10/05 07:46:33;;;;;;;4.53;4.10;;;14.20;99.90;;;;;;5034210;28;20470;-53
2022/10/05 07:49:02;;;;;;;5.30;4.10;;;14.50;99.90;;;;;;5033762;28;20796;-52
2022/10/05 07:51:36;;;;;;;8.07;4.50;;;14.40;99.90;;;;;;5016375;28;20558;-52
2022/10/05 07:54:15;;;;;;;10.73;5.20;;;14.50;99.90;;;;;;5016080;28;20454;-53
2022/10/05 07:56:44;;;;;;;12.00;4.93;;;14.60;99.90;;;;;;5016236;28;20556;-53
2022/10/05 07:59:18;;;;;;;10.67;4.70;;;14.70;99.90;;;;;;5015564;28;20498;-53
2022/10/05 08:01:53;;;;;;;10.17;5.33;;;14.70;99.90;;;;;;5016368;28;20493;-52
2022/10/05 08:04:24;;;;;;;9.90;5.00;;;14.80;99.90;;;;;;5016061;28;20494;-52
2022/10/05 08:06:54;;;;;;;6.60;4.70;;;14.70;99.90;;;;;;5034287;28;20526;-53
2022/10/05 08:09:36;;;;;;;10.40;4.47;;;14.90;99.90;;;;;;5033361;28;20949;-53
2022/10/05 08:12:16;;;;;;;8.10;4.33;;;15.00;99.90;;;;;;5033023;28;20549;-50
2022/10/05 08:14:51;;;;;;;6.63;4.33;;;15.00;99.90;;;;;;5033878;28;20436;-50
2022/10/05 08:17:26;;;;;;;9.17;4.30;;;15.30;99.90;;;;;;5022208;28;20453;-54
2022/10/05 08:20:00;;;;;;;7.63;3.53;;;15.00;99.90;;;;;;5033547;28;20455;-52
2022/10/05 08:22:31;;;;;;;9.00;4.97;;;15.30;99.90;;;;;;5033819;28;20496;-52
2022/10/05 08:25:01;;;;;;;4.33;3.93;;;15.30;99.90;;;;;;5033725;28;20797;-52
2022/10/05 08:27:35;;;;;;;5.03;3.80;;;15.40;99.90;;;;;;5033521;28;20486;-52
2022/10/05 08:30:05;;;;;;;5.73;3.40;;;15.50;99.90;;;;;;5033260;28;20473;-52
2022/10/05 08:32:37;;;;;;;14.67;4.60;;;15.60;99.90;;;;;;5033647;28;20439;-51
2022/10/05 08:35:16;;;;;;;9.33;4.30;;;15.50;99.90;;;;;;5032478;28;20525;-52
2022/10/05 08:37:44;;;;;;;9.90;4.20;;;15.60;99.90;;;;;;5032986;28;20447;-52
2022/10/05 08:40:47;;;;;;;9.10;5.37;;;15.90;99.90;;;;;;5032948;28;21038;-52
2022/10/05 08:43:27;;;;;;;14.40;5.33;;;15.70;99.90;;;;;;5033570;28;20448;-52
2022/10/05 08:46:12;;;;;;;11.10;4.27;;;15.20;99.90;;;;;;5033590;28;20539;-53
2022/10/05 08:49:12;;;;;;;15.50;4.43;;;15.80;99.90;;;;;;5022297;28;20478;-51
2022/10/05 08:52:30;;;;;;;6.33;3.97;;;16.00;99.90;;;;;;5032818;28;20466;-51
2022/10/05 08:55:34;;;;;;;8.03;3.87;;;16.10;99.90;;;;;;5036242;28;20952;-51
2022/10/05 08:58:30;;;;;;;7.80;4.70;;;16.00;99.90;;;;;;5026156;28;20542;-52
2022/10/05 09:01:06;;;;;;;10.90;4.50;;;16.00;99.90;;;;;;5032738;28;20475;-52
2022/10/05 09:04:06;;;;;;;8.83;3.90;;;16.00;99.90;;;;;;5032160;28;20440;-49
2022/10/05 09:07:00;;;;;;;10.90;4.83;;;16.20;99.90;;;;;;5013900;28;20475;-51
2022/10/05 09:09:44;;;;;;;7.60;3.50;;;16.50;99.90;;;;;;5031651;28;20463;-50
2022/10/05 09:12:31;;;;;;;8.93;5.00;;;16.40;99.90;;;;;;5031890;28;20432;-51
2022/10/05 09:15:12;;;;;;;8.30;3.63;;;16.60;99.90;;;;;;5032646;28;20428;-52
2022/10/05 09:18:06;;;;;;;5.07;3.90;;;16.60;99.90;;;;;;5031785;28;20537;-50
2022/10/05 09:20:41;;;;;;;9.53;5.00;;;16.70;99.90;;;;;;5031649;28;20516;-51
2022/10/05 09:23:13;;;;;;;12.70;4.90;;;16.80;99.90;;;;;;5031986;28;20436;-51
2022/10/05 09:25:57;;;;;;;9.07;4.47;;;16.80;99.90;;;;;;5031502;28;20799;-52
2022/10/05 09:28:31;;;;;;;9.27;4.20;;;16.80;99.90;;;;;;5031286;28;20532;-51
2022/10/05 09:31:09;;;;;;;9.47;4.80;;;16.60;99.90;;;;;;5032224;28;20439;-52
2022/10/05 09:33:58;;;;;;;8.63;3.77;;;16.80;99.90;;;;;;5032675;28;20436;-52
2022/10/05 09:37:05;;;;;;;7.13;3.73;;;17.40;99.90;;;;;;5012140;28;20430;-51
2022/10/05 09:39:54;;;;;;;8.03;4.10;;;17.00;99.90;;;;;;5011847;28;20477;-53
2022/10/05 09:42:54;;;;;;;9.40;3.87;;;16.80;99.90;;;;;;5012179;28;20541;-51
2022/10/05 09:45:55;;;;;;;10.13;4.70;;;17.10;99.90;;;;;;5012275;28;20453;-52
2022/10/05 09:48:50;;;;;;;7.07;4.73;;;17.50;99.90;;;;;;5011696;28;20482;-51
2022/10/05 09:51:54;;;;;;;8.47;5.07;;;17.30;99.90;;;;;;5011847;28;20490;-52
2022/10/05 09:55:00;;;;;;;8.40;4.20;;;17.30;99.90;;;;;;5011704;28;20442;-53
2022/10/05 09:57:51;;;;;;;11.53;4.77;;;17.40;99.90;;;;;;5012004;28;20901;-52
2022/10/05 10:00:25;;;;;;;12.43;5.57;;;17.40;99.90;;;;;;5018865;28;20619;-52
2022/10/05 10:03:23;;;;;;;6.33;4.63;;;17.40;99.90;;;;;;5031130;28;20453;-51
2022/10/05 10:06:11;;;;;;;21.27;4.90;;;17.40;99.90;;;;;;5031594;28;20408;-50
2022/10/05 10:09:05;;;;;;;13.33;4.70;;;17.50;99.90;;;;;;5031128;28;20488;-52
2022/10/05 10:11:47;;;;;;;10.43;5.17;;;17.40;99.90;;;;;;5013322;28;20938;-51
2022/10/05 10:14:30;;;;;;;4.60;4.00;;;17.30;99.90;;;;;;5031801;28;20964;-52
2022/10/05 10:17:28;;;;;;;7.03;4.47;;;17.20;99.90;;;;;;5031516;28;20949;-51
2022/10/05 10:20:13;;;;;;;10.03;4.60;;;17.10;99.90;;;;;;5031135;28;20500;-51
2022/10/05 10:23:05;;;;;;;10.47;5.47;;;17.00;99.90;;;;;;5031461;28;20445;-51
2022/10/05 10:26:00;;;;;;;8.17;5.73;;;17.00;99.90;;;;;;5011508;28;20453;-52
2022/10/05 10:29:06;;;;;;;7.63;5.30;;;16.90;99.90;;;;;;5011048;28;20497;-51
2022/10/05 10:31:50;;;;;;;8.07;4.00;;;17.20;99.90;;;;;;5012113;28;20445;-49
2022/10/05 10:34:42;;;;;;;8.70;4.80;;;16.90;99.90;;;;;;5010973;28;20450;-50
2022/10/05 10:37:34;;;;;;;7.93;4.60;;;16.90;99.90;;;;;;5011266;28;20523;-48
2022/10/05 10:40:20;;;;;;;9.90;4.80;;;16.80;99.90;;;;;;5011169;28;20836;-49
2022/10/05 10:43:06;;;;;;;6.17;4.90;;;17.20;99.90;;;;;;5013076;28;20454;-51
2022/10/05 10:45:47;;;;;;;7.60;4.90;;;16.70;99.90;;;;;;5031036;28;20437;-51
2022/10/05 10:48:59;;;;;;;6.33;4.97;;;16.70;99.90;;;;;;5031292;28;21082;-50
2022/10/05 10:51:55;;;;;;;7.33;4.70;;;16.80;99.90;;;;;;5015974;28;20969;-49
2022/10/05 10:54:57;;;;;;;7.60;5.13;;;17.00;99.90;;;;;;5033639;28;20450;-49
2022/10/05 10:57:39;;;;;;;7.03;5.33;;;16.90;99.90;;;;;;5029681;28;20438;-49
2022/10/05 11:00:27;;;;;;;6.40;4.97;;;17.00;99.90;;;;;;5026888;28;20974;-49
2022/10/05 11:03:36;;;;;;;7.65;5.40;;;16.80;99.90;;;;;;5030509;28;20981;-48
2022/10/05 11:06:25;;;;;;;8.50;5.15;;;16.90;99.90;;;;;;5030238;28;20430;-49
2022/10/05 11:09:22;;;;;;;7.57;5.83;;;17.10;99.90;;;;;;5029992;28;20651;-49
2022/10/05 11:12:09;;;;;;;10.70;5.10;;;17.10;99.90;;;;;;5030418;28;20453;-48
2022/10/05 11:14:51;;;;;;;9.13;4.80;;;16.70;99.90;;;;;;5013032;28;20455;-49
2022/10/05 11:17:30;;;;;;;6.70;5.23;;;17.20;99.90;;;;;;5030540;28;20476;-49
2022/10/05 11:20:23;;;;;;;8.60;6.17;;;17.40;99.90;;;;;;5029921;28;20450;-51
2022/10/05 11:22:57;;;;;;;10.77;5.43;;;17.50;99.90;;;;;;5013148;28;20449;-48
2022/10/05 11:25:49;;;;;;;6.50;5.07;;;17.60;99.90;;;;;;5031019;28;20433;-51
2022/10/05 11:28:53;;;;;;;9.20;5.67;;;17.80;99.90;;;;;;5030481;28;20469;-50
2022/10/05 11:31:44;;;;;;;7.93;4.13;;;17.90;99.90;;;;;;5030754;28;20448;-51
2022/10/05 11:34:51;;;;;;;7.60;4.27;;;18.10;99.90;;;;;;5033927;28;20794;-51
2022/10/05 11:37:53;;;;;;;6.13;4.80;;;18.40;99.90;;;;;;5028360;28;20786;-51
2022/10/05 11:40:49;;;;;;;11.23;5.30;;;18.40;99.90;;;;;;5030355;28;20494;-52
2022/10/05 11:44:04;;;;;;;11.40;5.10;;;18.60;99.90;;;;;;5021290;28;20458;-52
2022/10/05 11:46:38;;;;;;;7.10;4.97;;;18.70;99.90;;;;;;4970740;28;20438;-50
2022/10/05 11:49:21;;;;;;;6.47;4.57;;;18.50;99.90;;;;;;5020820;28;20470;-51
2022/10/05 11:51:57;;;;;;;8.00;6.10;;;18.60;99.90;;;;;;5033643;28;20449;-51
2022/10/05 11:54:46;;;;;;;6.20;5.60;;;19.10;99.90;;;;;;5032623;28;20454;-51
2022/10/05 11:57:17;;;;;;;7.47;4.73;;;18.90;99.90;;;;;;5014393;28;20428;-52
2022/10/05 11:59:52;;;;;;;11.03;5.70;;;18.60;99.90;;;;;;5030277;28;20907;-51
2022/10/05 12:02:40;;;;;;;7.23;4.23;;;19.20;99.90;;;;;;5033888;28;20457;-52
2022/10/05 12:05:15;;;;;;;9.83;5.60;;;18.90;99.90;;;;;;5033623;28;20449;-51
2022/10/05 12:07:49;;;;;;;5.67;4.30;;;18.80;99.90;;;;;;5033763;28;20547;-50
2022/10/05 12:10:27;;;;;;;5.40;4.70;;;19.00;99.90;;;;;;5033711;28;20470;-50
2022/10/05 12:13:07;;;;;;;8.20;5.60;;;18.90;99.90;;;;;;5033631;28;20470;-50
2022/10/05 12:15:44;;;;;;;7.40;5.00;;;19.00;99.90;;;;;;5033339;28;20435;-51
2022/10/05 12:18:17;;;;;;;6.50;5.03;;;19.00;99.90;;;;;;5033529;28;20459;-50
2022/10/05 12:20:48;;;;;;;12.30;5.47;;;18.70;99.90;;;;;;5032721;28;20456;-49
2022/10/05 12:23:20;;;;;;;8.80;4.50;;;19.00;99.90;;;;;;5033804;28;20442;-50
2022/10/05 12:25:52;;;;;;;5.53;3.93;;;19.10;99.90;;;;;;5033536;28;20441;-49
2022/10/05 12:28:23;;;;;;;4.10;3.57;;;19.00;99.90;;;;;;5015378;28;20471;-48
2022/10/05 12:31:09;;;;;;;8.67;4.03;;;19.10;99.90;;;;;;5032402;28;20448;-51
2022/10/05 12:33:45;;;;;;;6.83;4.20;;;19.30;99.90;;;;;;5033450;28;20435;-50
2022/10/05 12:36:19;;;;;;;11.70;5.17;;;19.30;99.90;;;;;;5032993;28;20535;-50
2022/10/05 12:38:51;;;;;;;6.60;4.17;;;18.90;99.90;;;;;;5032663;28;20444;-49
2022/10/05 12:41:25;;;;;;;5.97;4.60;;;19.20;99.90;;;;;;5032575;28;20524;-48
2022/10/05 12:44:08;;;;;;;11.00;6.60;;;19.00;99.90;;;;;;5033008;28;20447;-51
2022/10/05 12:46:43;;;;;;;9.37;5.30;;;19.00;99.90;;;;;;5033048;28;20435;-49
2022/10/05 12:49:31;;;;;;;10.97;5.07;;;19.00;99.90;;;;;;5028111;28;20498;-49
2022/10/05 12:52:00;;;;;;;4.70;3.40;;;18.90;99.90;;;;;;5013736;28;20433;-50
2022/10/05 12:54:40;;;;;;;6.20;3.27;;;19.00;99.90;;;;;;5013040;28;21025;-48
2022/10/05 12:57:14;;;;;;;5.87;4.50;;;19.20;99.90;;;;;;4994843;28;20457;-49
2022/10/05 12:59:45;;;;;;;6.60;4.10;;;18.90;99.90;;;;;;5012498;28;20459;-48
2022/10/05 13:02:22;;;;;;;6.73;4.30;;;18.70;99.90;;;;;;5012800;28;20436;-51
2022/10/05 13:04:56;;;;;;;5.10;4.30;;;18.90;99.90;;;;;;5012581;28;20532;-48
2022/10/05 13:07:39;;;;;;;4.30;3.37;;;18.90;99.90;;;;;;5012798;28;20870;-49
2022/10/05 13:10:16;;;;;;;4.70;3.63;;;18.90;99.90;;;;;;5012381;28;20455;-48
2022/10/05 13:12:52;;;;;;;7.27;3.90;;;18.90;99.90;;;;;;5012996;28;20436;-48
2022/10/05 13:15:26;;;;;;;5.80;3.17;;;18.90;99.90;;;;;;5012918;28;20435;-49
2022/10/05 13:18:03;;;;;;;6.80;4.07;;;18.80;99.90;;;;;;5012425;28;20448;-49
2022/10/05 13:20:36;;;;;;;6.47;3.07;;;18.90;99.90;;;;;;5012635;28;20451;-48
2022/10/05 13:23:09;;;;;;;5.93;4.10;;;18.90;99.90;;;;;;5012575;28;20470;-49
2022/10/05 13:25:43;;;;;;;12.40;4.80;;;18.90;99.90;;;;;;5012489;28;20431;-49
2022/10/05 13:28:15;;;;;;;6.37;4.57;;;18.80;99.90;;;;;;4994599;28;20895;-49
2022/10/05 13:30:50;;;;;;;7.33;3.60;;;18.90;99.90;;;;;;5012881;28;20865;-48
2022/10/05 13:33:25;;;;;;;3.97;3.13;;;19.20;99.90;;;;;;5030387;28;20435;-50
2022/10/05 13:36:03;;;;;;;6.30;3.33;;;19.00;99.80;;;;;;5028674;28;20919;-50
2022/10/05 13:38:41;;;;;;;6.47;3.83;;;19.10;99.70;;;;;;5030356;28;20430;-50
2022/10/05 13:41:16;;;;;;;7.50;3.67;;;18.90;99.50;;;;;;5012056;28;20877;-48
2022/10/05 13:43:49;;;;;;;13.23;3.50;;;19.10;99.50;;;;;;5012453;28;20430;-50
2022/10/05 13:46:27;;;;;;;7.07;3.53;;;19.10;99.30;;;;;;5030522;28;20433;-49
2022/10/05 13:49:07;;;;;;;7.53;3.40;;;18.90;99.20;;;;;;5029897;28;20548;-48
2022/10/05 13:51:41;;;;;;;14.50;4.07;;;18.80;99.30;;;;;;5014173;28;20445;-48